createdAt,value
2023-04-12T00:00:50.825Z,96495.97
2023-04-12T00:03:20.679Z,96496.88
2023-04-12T00:05:48.200Z,96496.16
2023-04-12T00:08:16.010Z,96491.78
2023-04-12T00:10:42.555Z,96486.97
2023-04-12T00:13:09.236Z,96477.78
2023-04-12T00:15:35.632Z,96474.03
2023-04-12T00:18:02.339Z,96482.97
2023-04-12T00:20:29.050Z,96476.59
2023-04-12T00:22:57.492Z,96467.34
2023-04-12T00:25:24.237Z,96471.81
2023-04-12T00:27:50.733Z,96467.03
2023-04-12T00:30:17.685Z,96458.13
2023-04-12T00:32:44.178Z,96453.31
2023-04-12T00:35:10.837Z,96454.84
2023-04-12T00:37:38.739Z,96452.66
2023-04-12T00:40:09.881Z,96441.69
2023-04-12T00:42:37.459Z,96433.72
2023-04-12T00:45:04.791Z,96431.00
2023-04-12T00:47:32.307Z,96427.25
2023-04-12T00:49:59.232Z,96431.47
2023-04-12T00:52:28.102Z,96423.50
2023-04-12T00:54:54.638Z,96421.91
2023-04-12T00:57:21.176Z,96419.50
2023-04-12T00:59:48.654Z,96421.59
2023-04-12T01:02:17.523Z,96410.13
2023-04-12T01:04:45.063Z,96403.19
2023-04-12T01:07:30.338Z,96404.22
2023-04-12T01:10:04.311Z,96411.53
2023-04-12T01:12:46.796Z,96396.25
2023-04-12T01:15:15.847Z,96408.19
2023-04-12T01:18:00.345Z,96399.75
2023-04-12T01:20:31.337Z,96404.84
2023-04-12T01:23:18.979Z,96402.38
2023-04-12T01:25:48.457Z,96388.31
2023-04-12T01:28:19.561Z,96386.56
2023-04-12T01:30:47.023Z,96384.81
2023-04-12T01:33:16.121Z,96381.91
2023-04-12T01:35:44.184Z,96376.19
2023-04-12T01:38:10.860Z,96376.50
2023-04-12T01:40:40.606Z,96377.16
2023-04-12T01:43:12.224Z,96362.03
2023-04-12T01:45:39.546Z,96364.56
2023-04-12T01:48:11.251Z,96361.38
2023-04-12T01:50:56.579Z,96367.59
2023-04-12T01:53:48.166Z,96353.88
2023-04-12T01:56:18.007Z,96351.84
2023-04-12T01:58:47.431Z,96348.34
2023-04-12T02:01:15.684Z,96335.44
2023-04-12T02:03:43.367Z,96337.97
2023-04-12T02:06:10.384Z,96339.09
2023-04-12T02:08:37.605Z,96332.56
2023-04-12T02:11:14.708Z,96332.78
2023-04-12T02:13:41.514Z,96331.75
2023-04-12T02:16:08.456Z,96323.94
2023-04-12T02:18:37.909Z,96310.88
2023-04-12T02:21:04.547Z,96308.25
2023-04-12T02:23:30.996Z,96309.31
2023-04-12T02:25:57.468Z,96298.16
2023-04-12T02:28:24.150Z,96291.31
2023-04-12T02:30:53.634Z,96289.09
2023-04-12T02:33:25.413Z,96282.72
2023-04-12T02:35:52.347Z,96277.00
2023-04-12T02:38:19.061Z,96281.47
2023-04-12T02:40:45.536Z,96264.91
2023-04-12T02:43:14.305Z,96267.59
2023-04-12T02:45:41.322Z,96260.28
2023-04-12T02:48:07.842Z,96260.28
2023-04-12T02:50:34.467Z,96237.84
2023-04-12T02:53:01.179Z,96235.31
2023-04-12T02:55:27.563Z,96224.81
2023-04-12T02:57:54.966Z,96221.69
2023-04-12T03:00:21.794Z,96224.63
2023-04-12T03:02:51.375Z,96220.19
2023-04-12T03:05:18.447Z,96208.25
2023-04-12T03:07:44.940Z,96210.56
2023-04-12T03:10:11.965Z,96202.50
2023-04-12T03:12:38.452Z,96198.03
2023-04-12T03:15:05.325Z,96196.22
2023-04-12T03:17:31.929Z,96195.97
2023-04-12T03:20:04.270Z,96195.47
2023-04-12T03:22:31.173Z,96186.56
2023-04-12T03:24:57.959Z,96187.00
2023-04-12T03:27:25.332Z,96192.78
2023-04-12T03:29:52.334Z,96187.00
2023-04-12T03:32:18.854Z,96174.41
2023-04-12T03:34:45.705Z,96177.47
2023-04-12T03:37:12.308Z,96168.41
2023-04-12T03:39:38.769Z,96168.81
2023-04-12T03:42:05.450Z,96168.97
2023-04-12T03:44:32.773Z,96159.91
2023-04-12T03:46:59.164Z,96154.78
2023-04-12T03:49:25.643Z,96148.25
2023-04-12T03:51:52.526Z,96147.47
2023-04-12T03:54:18.947Z,96142.13
2023-04-12T03:56:46.292Z,96128.06
2023-04-12T03:59:14.793Z,96132.69
2023-04-12T04:01:41.517Z,96131.09
2023-04-12T04:04:08.476Z,96125.13
2023-04-12T04:06:35.374Z,96115.28
2023-04-12T04:09:01.845Z,96115.97
2023-04-12T04:11:28.273Z,96112.91
2023-04-12T04:13:54.871Z,96120.16
2023-04-12T04:16:21.452Z,96108.63
2023-04-12T04:18:47.871Z,96106.06
2023-04-12T04:21:14.439Z,96103.44
2023-04-12T04:23:44.714Z,96098.22
2023-04-12T04:26:12.494Z,96098.72
2023-04-12T04:28:42.120Z,96084.06
2023-04-12T04:31:10.484Z,96084.06
2023-04-12T04:33:37.538Z,96085.59
2023-04-12T04:36:04.709Z,96079.31
2023-04-12T04:38:32.689Z,96082.97
2023-04-12T04:40:59.976Z,96084.56
2023-04-12T04:43:26.367Z,96074.59
2023-04-12T04:45:54.720Z,96069.41
2023-04-12T04:48:21.540Z,96068.81
2023-04-12T04:50:47.937Z,96065.88
2023-04-12T04:53:17.556Z,96065.97
2023-04-12T04:55:43.996Z,96060.88
2023-04-12T04:58:10.597Z,96052.44
2023-04-12T05:00:38.743Z,96049.06
2023-04-12T05:03:05.522Z,96053.53
2023-04-12T05:05:32.549Z,96054.94
2023-04-12T05:07:59.037Z,96055.78
2023-04-12T05:10:25.458Z,96059.22
2023-04-12T05:12:51.865Z,96045.28
2023-04-12T05:15:19.181Z,96052.66
2023-04-12T05:17:45.823Z,96055.38
2023-04-12T05:20:12.264Z,96053.25
2023-04-12T05:22:38.693Z,96039.88
2023-04-12T05:25:06.265Z,96046.97
2023-04-12T05:27:32.780Z,96051.16
2023-04-12T05:29:59.665Z,96042.16
2023-04-12T05:32:26.560Z,96051.19
2023-04-12T05:34:53.034Z,96041.75
2023-04-12T05:37:19.629Z,96039.19
2023-04-12T05:39:46.076Z,96035.03
2023-04-12T05:42:12.746Z,96038.75
2023-04-12T05:44:39.824Z,96034.03
2023-04-12T05:47:06.442Z,96028.28
2023-04-12T05:49:32.883Z,96018.84
2023-04-12T05:51:59.346Z,96012.03
2023-04-12T05:54:25.931Z,96006.34
2023-04-12T05:56:55.666Z,95994.81
2023-04-12T05:59:22.690Z,95987.41
2023-04-12T06:01:49.395Z,95981.16
2023-04-12T06:04:16.121Z,95976.16
2023-04-12T06:06:43.585Z,95979.47
2023-04-12T06:09:10.602Z,95964.31
2023-04-12T06:11:38.997Z,95971.28
2023-04-12T06:14:05.932Z,95967.97
2023-04-12T06:16:32.496Z,95969.63
2023-04-12T06:18:59.378Z,95964.97
2023-04-12T06:21:26.390Z,95961.88
2023-04-12T06:23:52.756Z,95955.53
2023-04-12T06:26:19.418Z,95947.72
2023-04-12T06:28:45.977Z,95943.53
2023-04-12T06:31:12.510Z,95940.38
2023-04-12T06:33:38.964Z,95935.66
2023-04-12T06:36:05.967Z,95940.44
2023-04-12T06:38:32.453Z,95928.31
2023-04-12T06:40:58.890Z,95927.31
2023-04-12T06:43:25.392Z,95928.38
2023-04-12T06:45:51.932Z,95922.13
2023-04-12T06:48:18.736Z,95924.75
2023-04-12T06:50:45.847Z,95913.44
2023-04-12T06:53:15.601Z,95914.00
2023-04-12T06:55:42.231Z,95907.97
2023-04-12T06:58:08.780Z,95902.22
2023-04-12T07:00:35.399Z,95900.59
2023-04-12T07:03:01.985Z,95900.63
2023-04-12T07:05:28.693Z,95887.75
2023-04-12T07:07:55.344Z,95883.31
2023-04-12T07:10:21.722Z,95885.94
2023-04-12T07:12:48.181Z,95882.75
2023-04-12T07:15:14.663Z,95870.63
2023-04-12T07:17:41.173Z,95866.69
2023-04-12T07:20:07.957Z,95863.28
2023-04-12T07:22:34.407Z,95842.22
2023-04-12T07:25:00.948Z,95822.75
2023-04-12T07:27:27.362Z,95817.16
2023-04-12T07:29:54.494Z,95829.00
2023-04-12T07:32:21.466Z,95817.88
2023-04-12T07:34:47.980Z,95823.09
2023-04-12T07:37:14.771Z,95825.72
2023-04-12T07:39:41.440Z,95814.38
2023-04-12T07:42:08.116Z,95804.66
2023-04-12T07:44:37.129Z,95807.78
2023-04-12T07:47:05.075Z,95807.47
2023-04-12T07:49:31.471Z,95798.16
2023-04-12T07:51:57.861Z,95791.13
2023-04-12T07:54:28.075Z,95800.53
2023-04-12T07:56:59.447Z,95805.78
2023-04-12T07:59:25.979Z,95791.28
2023-04-12T08:01:52.589Z,95787.59
2023-04-12T08:04:19.231Z,95787.13
2023-04-12T08:06:45.741Z,95791.06
2023-04-12T08:09:12.320Z,95787.28
2023-04-12T08:11:39.016Z,95776.72
2023-04-12T08:14:05.699Z,95770.41
2023-04-12T08:16:32.672Z,95772.09
2023-04-12T08:18:59.332Z,95780.97
2023-04-12T08:21:27.532Z,95785.28
2023-04-12T08:23:54.049Z,95779.69
2023-04-12T08:26:21.223Z,95774.09
2023-04-12T08:28:48.580Z,95773.38
2023-04-12T08:31:16.328Z,95777.22
2023-04-12T08:33:42.810Z,95779.13
2023-04-12T08:36:10.328Z,95772.56
2023-04-12T08:38:45.503Z,95781.56
2023-04-12T08:41:14.033Z,95776.22
2023-04-12T08:43:45.346Z,95781.13
2023-04-12T08:46:15.721Z,95765.16
2023-04-12T08:48:45.829Z,95771.56
2023-04-12T08:51:20.045Z,95774.91
2023-04-12T08:53:46.745Z,95767.50
2023-04-12T08:56:14.650Z,95768.88
2023-04-12T08:58:45.515Z,95770.91
2023-04-12T09:01:15.843Z,95765.34
2023-04-12T09:03:46.318Z,95774.81
2023-04-12T09:06:13.558Z,95755.91
2023-04-12T09:08:56.623Z,95759.22
2023-04-12T09:11:28.260Z,95761.25
2023-04-12T09:13:56.724Z,95749.09
2023-04-12T09:16:41.247Z,95760.63
2023-04-12T09:19:09.022Z,95746.66
2023-04-12T09:21:35.886Z,95750.16
2023-04-12T09:24:04.586Z,95745.69
2023-04-12T09:26:31.506Z,95740.28
2023-04-12T09:28:57.984Z,95730.81
2023-04-12T09:31:24.388Z,95739.19
2023-04-12T09:33:50.934Z,95733.78
2023-04-12T09:36:18.944Z,95732.59
2023-04-12T09:39:00.702Z,95739.91
2023-04-12T09:41:28.773Z,95735.09
2023-04-12T09:43:55.483Z,95728.78
2023-04-12T09:46:22.807Z,95735.38
2023-04-12T09:48:52.020Z,95725.63
2023-04-12T09:51:29.436Z,95731.63
2023-04-12T09:54:01.386Z,95722.16
2023-04-12T09:56:33.306Z,95709.59
2023-04-12T09:59:04.568Z,95713.44
2023-04-12T10:01:40.793Z,95705.66
2023-04-12T10:04:08.771Z,95720.78
2023-04-12T10:06:36.975Z,95718.44
2023-04-12T10:09:04.442Z,95707.78
2023-04-12T10:11:32.205Z,95715.59
2023-04-12T10:13:59.010Z,95702.31
2023-04-12T10:16:27.212Z,95707.66
2023-04-12T10:18:55.631Z,95710.72
2023-04-12T10:21:22.900Z,95707.13
2023-04-12T10:23:51.270Z,95703.59
2023-04-12T10:26:18.072Z,95698.03
2023-04-12T10:28:47.101Z,95699.50
2023-04-12T10:31:32.849Z,95692.25
2023-04-12T10:34:02.864Z,95687.78
2023-04-12T10:36:51.175Z,95676.22
2023-04-12T10:39:17.965Z,95680.47
2023-04-12T10:42:19.729Z,95692.19
2023-04-12T10:44:48.870Z,95699.69
2023-04-12T10:47:15.725Z,95696.31
2023-04-12T10:50:21.634Z,95690.97
2023-04-12T10:53:21.643Z,95679.75
2023-04-12T10:55:48.520Z,95688.50
2023-04-12T10:58:50.678Z,95680.25
2023-04-12T11:01:18.626Z,95693.28
2023-04-12T11:04:07.139Z,95666.38
2023-04-12T11:06:59.769Z,95674.09
2023-04-12T11:09:39.027Z,95666.47
2023-04-12T11:12:11.011Z,95667.75
2023-04-12T11:14:45.889Z,95660.91
2023-04-12T11:17:15.996Z,95652.13
2023-04-12T11:19:44.813Z,95640.97
2023-04-12T11:22:15.547Z,95639.66
2023-04-12T11:24:47.941Z,95642.84
2023-04-12T11:27:16.352Z,95640.22
2023-04-12T11:29:44.210Z,95633.78
2023-04-12T11:32:15.644Z,95637.72
2023-04-12T11:34:43.987Z,95630.56
2023-04-12T11:37:11.114Z,95620.09
2023-04-12T11:39:42.788Z,95622.91
2023-04-12T11:42:15.633Z,95640.97
2023-04-12T11:44:56.104Z,95623.63
2023-04-12T11:47:26.179Z,95618.97
2023-04-12T11:49:54.045Z,95621.13
2023-04-12T11:52:21.753Z,95610.38
2023-04-12T11:54:50.078Z,95614.72
2023-04-12T11:57:18.653Z,95614.50
2023-04-12T11:59:47.255Z,95622.28
2023-04-12T12:02:22.604Z,95618.41
2023-04-12T12:04:50.845Z,95612.13
2023-04-12T12:07:17.825Z,95600.03
2023-04-12T12:09:46.015Z,95592.84
2023-04-12T12:12:14.005Z,95576.00
2023-04-12T12:14:43.192Z,95577.16
2023-04-12T12:17:15.195Z,95598.22
2023-04-12T12:19:45.818Z,95578.72
2023-04-12T12:22:22.098Z,95573.31
2023-04-12T12:24:55.798Z,95579.41
2023-04-12T12:27:24.904Z,95579.16
2023-04-12T12:29:55.487Z,95587.09
2023-04-12T12:32:23.741Z,95571.91
2023-04-12T12:34:54.704Z,95581.56
2023-04-12T12:37:24.351Z,95565.19
2023-04-12T12:40:28.199Z,95554.22
2023-04-12T12:42:56.185Z,95557.25
2023-04-12T12:45:24.764Z,95563.88
2023-04-12T12:47:56.041Z,95569.94
2023-04-12T12:50:25.133Z,95561.88
2023-04-12T12:52:52.538Z,95563.88
2023-04-12T12:55:21.084Z,95549.72
2023-04-12T12:58:05.468Z,95548.78
2023-04-12T13:00:33.750Z,95542.09
2023-04-12T13:03:00.904Z,95552.59
2023-04-12T13:05:27.741Z,95530.75
2023-04-12T13:07:54.201Z,95529.00
2023-04-12T13:10:21.024Z,95530.97
2023-04-12T13:12:47.491Z,95532.09
2023-04-12T13:15:22.364Z,95524.84
2023-04-12T13:17:53.613Z,95537.34
2023-04-12T13:20:20.995Z,95522.88
2023-04-12T13:22:47.549Z,95518.34
2023-04-12T13:25:13.956Z,95514.78
2023-04-12T13:27:40.564Z,95516.06
2023-04-12T13:30:07.799Z,95509.13
2023-04-12T13:32:34.249Z,95509.59
2023-04-12T13:35:00.698Z,95500.88
2023-04-12T13:37:27.156Z,95514.09
2023-04-12T13:39:53.672Z,95510.78
2023-04-12T13:42:20.101Z,95492.50
2023-04-12T13:44:48.601Z,95508.47
2023-04-12T13:47:18.602Z,95496.31
2023-04-12T13:49:45.302Z,95486.91
2023-04-12T13:52:12.099Z,95486.81
2023-04-12T13:54:38.683Z,95485.13
2023-04-12T13:57:05.893Z,95490.63
2023-04-12T13:59:32.629Z,95483.91
2023-04-12T14:02:00.130Z,95483.53
2023-04-12T14:04:31.000Z,95493.31
2023-04-12T14:06:58.757Z,95488.19
2023-04-12T14:09:31.580Z,95494.63
2023-04-12T14:12:00.115Z,95492.44
2023-04-12T14:14:27.449Z,95487.56
2023-04-12T14:16:57.242Z,95493.22
2023-04-12T14:19:24.589Z,95478.31
2023-04-12T14:21:51.007Z,95479.16
2023-04-12T14:24:18.269Z,95479.28
2023-04-12T14:26:45.432Z,95471.47
2023-04-12T14:29:12.154Z,95459.56
2023-04-12T14:31:39.328Z,95461.38
2023-04-12T14:34:06.286Z,95464.09
2023-04-12T14:36:33.531Z,95461.88
2023-04-12T14:39:01.631Z,95462.41
2023-04-12T14:41:28.354Z,95464.88
2023-04-12T14:43:54.830Z,95464.59
2023-04-12T14:46:21.474Z,95463.25
2023-04-12T14:48:47.885Z,95465.06
2023-04-12T14:51:14.324Z,95457.81
2023-04-12T14:53:42.578Z,95473.97
2023-04-12T14:56:30.250Z,95468.09
2023-04-12T14:58:57.680Z,95469.41
2023-04-12T15:01:25.263Z,95486.53
2023-04-12T15:03:52.902Z,95484.63
2023-04-12T15:06:22.049Z,95490.75
2023-04-12T15:08:54.919Z,95506.94
2023-04-12T15:11:26.949Z,95480.75
2023-04-12T15:13:53.688Z,95492.22
2023-04-12T15:16:20.483Z,95490.03
2023-04-12T15:18:47.128Z,95491.47
2023-04-12T15:21:13.586Z,95529.75
2023-04-12T15:23:44.950Z,95547.72
2023-04-12T15:26:13.975Z,95582.63
2023-04-12T15:28:40.607Z,95602.59
2023-04-12T15:31:08.027Z,95609.44
2023-04-12T15:33:34.850Z,95617.34
2023-04-12T15:36:02.239Z,95603.41
2023-04-12T15:38:29.869Z,95602.59
2023-04-12T15:40:57.765Z,95601.53
2023-04-12T15:43:24.872Z,95598.91
2023-04-12T15:45:54.430Z,95587.28
2023-04-12T15:48:22.884Z,95598.94
2023-04-12T15:50:50.104Z,95597.34
2023-04-12T15:53:19.408Z,95598.91
2023-04-12T15:55:47.012Z,95588.25
2023-04-12T15:58:14.090Z,95601.63
2023-04-12T16:00:41.021Z,95601.66
2023-04-12T16:03:07.710Z,95608.72
2023-04-12T16:05:34.624Z,95605.31
2023-04-12T16:08:01.087Z,95619.03
2023-04-12T16:10:28.167Z,95614.81
2023-04-12T16:12:55.450Z,95618.81
2023-04-12T16:15:21.971Z,95631.97
2023-04-12T16:17:49.712Z,95629.38
2023-04-12T16:20:17.009Z,95629.38
2023-04-12T16:22:45.233Z,95638.09
2023-04-12T16:25:12.302Z,95638.63
2023-04-12T16:27:38.696Z,95628.88
2023-04-12T16:30:05.723Z,95617.78
2023-04-12T16:32:32.305Z,95612.41
2023-04-12T16:34:59.072Z,95621.38
2023-04-12T16:37:28.152Z,95619.72
2023-04-12T16:39:54.595Z,95615.50
2023-04-12T16:42:22.240Z,95626.53
2023-04-12T16:44:48.909Z,95627.53
2023-04-12T16:47:15.405Z,95619.16
2023-04-12T16:49:42.381Z,95631.34
2023-04-12T16:52:09.855Z,95631.41
2023-04-12T16:54:36.453Z,95634.03
2023-04-12T16:57:04.073Z,95631.97
2023-04-12T16:59:33.906Z,95635.66
2023-04-12T17:02:01.087Z,95637.75
2023-04-12T17:04:27.961Z,95630.34
2023-04-12T17:06:54.509Z,95634.03
2023-04-12T17:09:20.966Z,95648.78
2023-04-12T17:11:47.567Z,95655.19
2023-04-12T17:14:14.859Z,95666.25
2023-04-12T17:16:41.375Z,95672.59
2023-04-12T17:19:10.433Z,95659.44
2023-04-12T17:21:43.315Z,95663.91
2023-04-12T17:24:10.885Z,95669.41
2023-04-12T17:26:37.483Z,95658.88
2023-04-12T17:29:04.342Z,95652.56
2023-04-12T17:34:01.943Z,95666.81
2023-04-12T17:36:31.657Z,95660.75
2023-04-12T17:38:59.621Z,95651.53
2023-04-12T17:41:27.478Z,95652.56
2023-04-12T17:43:54.183Z,95656.28
2023-04-12T17:46:20.779Z,95649.97
2023-04-12T17:48:47.312Z,95646.81
2023-04-12T17:51:15.947Z,95642.59
2023-04-12T17:53:42.647Z,95645.22
2023-04-12T17:56:09.899Z,95653.66
2023-04-12T17:58:36.404Z,95645.22
2023-04-12T18:01:02.869Z,95651.53
2023-04-12T18:03:29.656Z,95667.88
2023-04-12T18:05:58.828Z,95667.34
2023-04-12T18:08:25.310Z,95672.34
2023-04-12T18:10:52.410Z,95664.19
2023-04-12T18:13:18.989Z,95664.72
2023-04-12T18:15:45.654Z,95658.91
2023-04-12T18:18:12.476Z,95652.84
2023-04-12T18:20:39.276Z,95662.63
2023-04-12T18:23:05.904Z,95671.03
2023-04-12T18:25:32.323Z,95657.84
2023-04-12T18:27:59.124Z,95661.03
2023-04-12T18:30:25.571Z,95665.22
2023-04-12T18:32:52.156Z,95679.72
2023-04-12T18:35:18.844Z,95683.16
2023-04-12T18:37:45.653Z,95682.88
2023-04-12T18:40:13.155Z,95687.59
2023-04-12T18:42:39.574Z,95698.91
2023-04-12T18:45:06.759Z,95693.88
2023-04-12T18:47:33.271Z,95702.56
2023-04-12T18:49:59.900Z,95716.28
2023-04-12T18:52:26.537Z,95709.97
2023-04-12T18:54:53.080Z,95709.97
2023-04-12T18:57:19.611Z,95722.09
2023-04-12T18:59:48.066Z,95717.88
2023-04-12T19:02:15.119Z,95722.34
2023-04-12T19:04:42.010Z,95715.25
2023-04-12T19:07:08.436Z,95699.72
2023-04-12T19:09:34.960Z,95698.41
2023-04-12T19:12:02.906Z,95705.00
2023-04-12T19:14:30.600Z,95701.56
2023-04-12T19:16:57.287Z,95690.75
2023-04-12T19:19:23.782Z,95686.28
2023-04-12T19:21:50.144Z,95691.56
2023-04-12T19:24:16.672Z,95695.22
2023-04-12T19:26:47.016Z,95703.41
2023-04-12T19:29:15.725Z,95712.59
2023-04-12T19:31:43.650Z,95716.81
2023-04-12T19:34:11.636Z,95714.19
2023-04-12T19:36:38.253Z,95695.75
2023-04-12T19:39:04.750Z,95704.19
2023-04-12T19:41:31.543Z,95723.66
2023-04-12T19:43:58.242Z,95734.75
2023-04-12T19:46:25.044Z,95726.56
2023-04-12T19:48:52.559Z,95725.50
2023-04-12T19:51:19.541Z,95726.84
2023-04-12T19:53:49.236Z,95724.72
2023-04-12T19:56:15.702Z,95732.63
2023-04-12T19:58:42.194Z,95724.72
2023-04-12T20:01:09.816Z,95717.88
2023-04-12T20:03:37.513Z,95723.94
2023-04-12T20:06:04.585Z,95730.25
2023-04-12T20:08:31.682Z,95729.44
2023-04-12T20:10:58.080Z,95718.91
2023-04-12T20:13:24.554Z,95718.41
2023-04-12T20:15:51.182Z,95725.75
2023-04-12T20:18:17.937Z,95727.84
2023-04-12T20:20:44.866Z,95739.97
2023-04-12T20:23:14.114Z,95742.59
2023-04-12T20:25:41.620Z,95743.59
2023-04-12T20:28:09.013Z,95739.94
2023-04-12T20:30:36.589Z,95746.78
2023-04-12T20:33:03.745Z,95759.88
2023-04-12T20:35:30.719Z,95767.50
2023-04-12T20:37:57.643Z,95771.19
2023-04-12T20:40:27.074Z,95784.91
2023-04-12T20:42:53.745Z,95792.56
2023-04-12T20:45:21.672Z,95788.03
2023-04-12T20:47:48.295Z,95785.59
2023-04-12T20:50:15.660Z,95794.28
2023-04-12T20:52:42.112Z,95790.63
2023-04-12T20:55:10.990Z,95794.59
2023-04-12T20:57:37.344Z,95791.13
2023-04-12T21:00:12.746Z,95799.63
2023-04-12T21:02:39.541Z,95799.28
2023-04-12T21:05:06.565Z,95800.09
2023-04-12T21:07:33.661Z,95795.06
2023-04-12T21:10:02.031Z,95797.09
2023-04-12T21:12:31.494Z,95808.94
2023-04-12T21:14:58.029Z,95810.06
2023-04-12T21:17:25.231Z,95807.88
2023-04-12T21:19:52.018Z,95805.25
2023-04-12T21:22:18.691Z,95822.28
2023-04-12T21:24:45.184Z,95828.03
2023-04-12T21:27:12.079Z,95834.47
2023-04-12T21:29:41.321Z,95836.31
2023-04-12T21:32:09.075Z,95846.69
2023-04-12T21:34:35.840Z,95854.59
2023-04-12T21:37:02.506Z,95855.69
2023-04-12T21:39:30.108Z,95862.44
2023-04-12T21:41:57.917Z,95866.63
2023-04-12T21:44:25.605Z,95868.28
2023-04-12T21:46:52.184Z,95866.84
2023-04-12T21:49:18.787Z,95860.81
2023-04-12T21:51:47.064Z,95870.06
2023-04-12T21:54:14.362Z,95863.00
2023-04-12T21:56:41.004Z,95862.31
2023-04-12T21:59:08.182Z,95861.75
2023-04-12T22:01:34.729Z,95864.97
2023-04-12T22:04:01.471Z,95872.25
2023-04-12T22:06:28.046Z,95855.88
2023-04-12T22:08:55.437Z,95875.00
2023-04-12T22:11:22.013Z,95875.31
2023-04-12T22:13:48.454Z,95891.09
2023-04-12T22:16:15.743Z,95897.09
2023-04-12T22:18:45.485Z,95891.03
2023-04-12T22:21:12.811Z,95888.59
2023-04-12T22:23:40.466Z,95890.44
2023-04-12T22:26:08.123Z,95893.03
2023-04-12T22:28:38.521Z,95885.97
2023-04-12T22:31:08.580Z,95895.09
2023-04-12T22:33:36.939Z,95901.88
2023-04-12T22:36:05.929Z,95908.47
2023-04-12T22:38:35.995Z,95905.06
2023-04-12T22:41:02.491Z,95897.00
2023-04-12T22:43:34.047Z,95900.22
2023-04-12T22:46:04.388Z,95905.38
2023-04-12T22:48:32.310Z,95901.53
2023-04-12T22:51:00.351Z,95907.50
2023-04-12T22:53:27.438Z,95905.47
2023-04-12T22:55:57.133Z,95901.53
2023-04-12T22:58:23.952Z,95908.44
2023-04-12T23:00:50.820Z,95908.25
2023-04-12T23:03:18.414Z,95912.13
2023-04-12T23:05:47.978Z,95903.19
2023-04-12T23:08:14.608Z,95903.66
2023-04-12T23:10:44.572Z,95897.56
2023-04-12T23:13:11.619Z,95895.38
2023-04-12T23:15:40.550Z,95897.75
2023-04-12T23:18:10.749Z,95884.78
2023-04-12T23:20:38.209Z,95881.41
2023-04-12T23:23:05.564Z,95880.88
2023-04-12T23:25:39.211Z,95869.22
2023-04-12T23:28:12.326Z,95878.13
2023-04-12T23:30:44.585Z,95884.84
2023-04-12T23:33:12.058Z,95889.50
2023-04-12T23:35:39.079Z,95907.63
2023-04-12T23:38:05.638Z,95906.31
2023-04-12T23:40:32.335Z,95903.78
2023-04-12T23:42:58.774Z,95903.69
2023-04-12T23:45:25.203Z,95900.09
2023-04-12T23:47:51.712Z,95898.59
2023-04-12T23:50:18.257Z,95898.88
2023-04-12T23:52:44.983Z,95905.44
2023-04-12T23:55:11.489Z,95906.94
2023-04-12T23:57:37.831Z,95916.34
